sensor_id;sensor_type;location;lat;lon;timestamp;pressure;altitude;pressure_sealevel;temperature;humidity
49063;BME280;34876;51.464;-0.150;2022-11-20T00:01:40;101125.89;;;17.17;46.30
49063;BME280;34876;51.464;-0.150;2022-11-20T00:04:10;101122.28;;;17.18;46.25
49063;BME280;34876;51.464;-0.150;2022-11-20T00:06:41;101120.42;;;17.17;46.28
49063;BME280;34876;51.464;-0.150;2022-11-20T00:09:10;101120.37;;;17.17;46.31
49063;BME280;34876;51.464;-0.150;2022-11-20T00:11:38;101119.71;;;17.16;46.24
49063;BME280;34876;51.464;-0.150;2022-11-20T00:14:09;101121.71;;;17.17;46.25
49063;BME280;34876;51.464;-0.150;2022-11-20T00:16:38;101121.98;;;17.17;46.20
49063;BME280;34876;51.464;-0.150;2022-11-20T00:19:09;101121.04;;;17.17;46.24
49063;BME280;34876;51.464;-0.150;2022-11-20T00:21:38;101116.20;;;17.16;46.24
49063;BME280;34876;51.464;-0.150;2022-11-20T00:24:08;101110.63;;;17.17;46.20
49063;BME280;34876;51.464;-0.150;2022-11-20T00:26:38;101106.69;;;17.16;46.16
49063;BME280;34876;51.464;-0.150;2022-11-20T00:29:09;101099.89;;;17.16;46.19
49063;BME280;34876;51.464;-0.150;2022-11-20T00:31:38;101101.29;;;17.17;46.12
49063;BME280;34876;51.464;-0.150;2022-11-20T00:34:09;101098.50;;;17.17;46.10
49063;BME280;34876;51.464;-0.150;2022-11-20T00:36:38;101095.48;;;17.17;46.11
49063;BME280;34876;51.464;-0.150;2022-11-20T00:39:08;101091.35;;;17.17;46.10
49063;BME280;34876;51.464;-0.150;2022-11-20T00:41:37;101087.26;;;17.17;46.05
49063;BME280;34876;51.464;-0.150;2022-11-20T00:44:07;101082.09;;;17.17;46.04
49063;BME280;34876;51.464;-0.150;2022-11-20T00:46:36;101081.75;;;17.17;46.16
49063;BME280;34876;51.464;-0.150;2022-11-20T00:49:05;101077.01;;;17.13;46.12
49063;BME280;34876;51.464;-0.150;2022-11-20T00:51:34;101074.27;;;17.17;45.97
49063;BME280;34876;51.464;-0.150;2022-11-20T00:54:03;101072.12;;;17.16;46.05
49063;BME280;34876;51.464;-0.150;2022-11-20T00:56:33;101071.29;;;17.17;46.01
49063;BME280;34876;51.464;-0.150;2022-11-20T00:59:02;101066.27;;;17.16;46.05
49063;BME280;34876;51.464;-0.150;2022-11-20T01:03:22;101062.89;;;17.17;45.90
49063;BME280;34876;51.464;-0.150;2022-11-20T01:05:51;101061.46;;;17.17;45.97
49063;BME280;34876;51.464;-0.150;2022-11-20T01:08:19;101055.37;;;17.17;45.86
49063;BME280;34876;51.464;-0.150;2022-11-20T01:10:48;101052.85;;;17.17;45.83
49063;BME280;34876;51.464;-0.150;2022-11-20T01:13:17;101058.12;;;17.18;45.76
49063;BME280;34876;51.464;-0.150;2022-11-20T01:15:46;101058.27;;;17.17;45.81
49063;BME280;34876;51.464;-0.150;2022-11-20T01:18:16;101053.25;;;17.17;45.82
49063;BME280;34876;51.464;-0.150;2022-11-20T01:20:45;101053.84;;;17.17;45.80
49063;BME280;34876;51.464;-0.150;2022-11-20T01:23:14;101045.33;;;17.16;45.73
49063;BME280;34876;51.464;-0.150;2022-11-20T01:25:43;101041.19;;;17.17;45.79
49063;BME280;34876;51.464;-0.150;2022-11-20T01:28:12;101040.55;;;17.17;45.76
49063;BME280;34876;51.464;-0.150;2022-11-20T01:30:42;101039.85;;;17.12;45.87
49063;BME280;34876;51.464;-0.150;2022-11-20T01:33:11;101037.87;;;17.15;45.78
49063;BME280;34876;51.464;-0.150;2022-11-20T01:35:41;101035.56;;;17.16;45.73
49063;BME280;34876;51.464;-0.150;2022-11-20T01:38:10;101028.49;;;17.17;45.71
49063;BME280;34876;51.464;-0.150;2022-11-20T01:40:41;101021.01;;;17.17;45.70
49063;BME280;34876;51.464;-0.150;2022-11-20T01:43:14;101016.00;;;17.18;45.59
49063;BME280;34876;51.464;-0.150;2022-11-20T01:45:58;101009.30;;;17.17;45.68
49063;BME280;34876;51.464;-0.150;2022-11-20T01:48:33;101005.84;;;17.16;45.65
49063;BME280;34876;51.464;-0.150;2022-11-20T01:51:14;101002.21;;;17.16;45.55
49063;BME280;34876;51.464;-0.150;2022-11-20T01:53:47;100999.59;;;17.17;45.60
49063;BME280;34876;51.464;-0.150;2022-11-20T01:56:18;100998.42;;;17.17;45.60
49063;BME280;34876;51.464;-0.150;2022-11-20T01:58:51;100992.93;;;17.17;45.47
49063;BME280;34876;51.464;-0.150;2022-11-20T02:01:22;100989.08;;;17.17;45.47
49063;BME280;34876;51.464;-0.150;2022-11-20T02:03:52;100987.98;;;17.17;45.52
49063;BME280;34876;51.464;-0.150;2022-11-20T02:06:24;100987.10;;;17.16;45.56
49063;BME280;34876;51.464;-0.150;2022-11-20T02:08:55;100985.04;;;17.17;45.54
49063;BME280;34876;51.464;-0.150;2022-11-20T02:11:25;100980.55;;;17.17;45.48
49063;BME280;34876;51.464;-0.150;2022-11-20T02:13:55;100976.13;;;17.17;45.50
49063;BME280;34876;51.464;-0.150;2022-11-20T02:16:27;100968.71;;;17.18;45.41
49063;BME280;34876;51.464;-0.150;2022-11-20T02:19:00;100963.97;;;17.16;45.47
49063;BME280;34876;51.464;-0.150;2022-11-20T02:21:35;100960.70;;;17.16;45.49
49063;BME280;34876;51.464;-0.150;2022-11-20T02:24:10;100955.76;;;17.16;45.39
49063;BME280;34876;51.464;-0.150;2022-11-20T02:26:47;100949.28;;;17.16;45.46
49063;BME280;34876;51.464;-0.150;2022-11-20T02:29:24;100948.44;;;17.16;45.38
49063;BME280;34876;51.464;-0.150;2022-11-20T02:31:56;100940.19;;;17.16;45.39
49063;BME280;34876;51.464;-0.150;2022-11-20T02:34:26;100931.24;;;17.15;45.37
49063;BME280;34876;51.464;-0.150;2022-11-20T02:36:56;100931.11;;;17.15;45.54
49063;BME280;34876;51.464;-0.150;2022-11-20T02:39:27;100928.80;;;17.16;45.28
49063;BME280;34876;51.464;-0.150;2022-11-20T02:41:57;100926.18;;;17.15;45.34
49063;BME280;34876;51.464;-0.150;2022-11-20T02:44:25;100920.86;;;17.14;45.38
49063;BME280;34876;51.464;-0.150;2022-11-20T02:46:57;100917.69;;;17.14;45.41
49063;BME280;34876;51.464;-0.150;2022-11-20T02:49:26;100913.12;;;17.16;45.26
49063;BME280;34876;51.464;-0.150;2022-11-20T02:51:55;100904.66;;;17.14;45.30
49063;BME280;34876;51.464;-0.150;2022-11-20T02:54:25;100898.90;;;17.16;45.26
49063;BME280;34876;51.464;-0.150;2022-11-20T02:56:55;100899.74;;;17.14;45.24
49063;BME280;34876;51.464;-0.150;2022-11-20T02:59:24;100900.17;;;17.14;45.31
49063;BME280;34876;51.464;-0.150;2022-11-20T03:01:54;100902.05;;;17.14;45.22
49063;BME280;34876;51.464;-0.150;2022-11-20T03:04:22;100903.52;;;17.14;45.26
49063;BME280;34876;51.464;-0.150;2022-11-20T03:06:50;100900.92;;;17.13;45.31
49063;BME280;34876;51.464;-0.150;2022-11-20T03:09:19;100891.85;;;17.13;45.26
49063;BME280;34876;51.464;-0.150;2022-11-20T03:11:50;100889.14;;;17.14;45.20
49063;BME280;34876;51.464;-0.150;2022-11-20T03:14:19;100887.47;;;17.14;45.19
49063;BME280;34876;51.464;-0.150;2022-11-20T03:16:48;100890.17;;;17.12;45.26
49063;BME280;34876;51.464;-0.150;2022-11-20T03:19:16;100891.71;;;17.13;45.26
49063;BME280;34876;51.464;-0.150;2022-11-20T03:21:46;100885.98;;;17.14;45.22
49063;BME280;34876;51.464;-0.150;2022-11-20T03:24:15;100884.18;;;17.13;45.27
49063;BME280;34876;51.464;-0.150;2022-11-20T03:26:45;100877.46;;;17.12;45.30
49063;BME280;34876;51.464;-0.150;2022-11-20T03:29:14;100873.21;;;17.11;45.27
49063;BME280;34876;51.464;-0.150;2022-11-20T03:31:43;100870.66;;;17.11;45.32
49063;BME280;34876;51.464;-0.150;2022-11-20T03:34:12;100867.27;;;17.11;45.39
49063;BME280;34876;51.464;-0.150;2022-11-20T03:36:42;100864.95;;;17.11;45.39
49063;BME280;34876;51.464;-0.150;2022-11-20T03:39:12;100861.96;;;17.10;45.36
49063;BME280;34876;51.464;-0.150;2022-11-20T03:41:41;100859.70;;;17.09;45.42
49063;BME280;34876;51.464;-0.150;2022-11-20T03:44:11;100858.66;;;17.10;45.44
49063;BME280;34876;51.464;-0.150;2022-11-20T03:46:40;100858.27;;;17.10;45.44
49063;BME280;34876;51.464;-0.150;2022-11-20T03:49:09;100856.47;;;17.10;45.37
49063;BME280;34876;51.464;-0.150;2022-11-20T03:51:38;100850.76;;;17.10;45.39
49063;BME280;34876;51.464;-0.150;2022-11-20T03:54:08;100844.71;;;17.11;45.46
49063;BME280;34876;51.464;-0.150;2022-11-20T03:56:38;100842.01;;;17.10;45.41
49063;BME280;34876;51.464;-0.150;2022-11-20T03:59:10;100838.32;;;17.11;45.45
49063;BME280;34876;51.464;-0.150;2022-11-20T04:01:39;100836.13;;;17.10;45.45
49063;BME280;34876;51.464;-0.150;2022-11-20T04:04:08;100825.46;;;17.10;45.54
49063;BME280;34876;51.464;-0.150;2022-11-20T04:06:38;100823.06;;;17.09;45.54
49063;BME280;34876;51.464;-0.150;2022-11-20T04:09:07;100817.46;;;17.10;45.59
49063;BME280;34876;51.464;-0.150;2022-11-20T04:11:39;100813.23;;;17.09;45.66
49063;BME280;34876;51.464;-0.150;2022-11-20T04:14:13;100807.07;;;17.09;45.73
49063;BME280;34876;51.464;-0.150;2022-11-20T04:16:43;100809.97;;;17.07;45.75
49063;BME280;34876;51.464;-0.150;2022-11-20T04:19:13;100810.42;;;17.07;45.77
49063;BME280;34876;51.464;-0.150;2022-11-20T04:21:43;100802.93;;;17.07;45.79
49063;BME280;34876;51.464;-0.150;2022-11-20T04:24:13;100802.01;;;17.07;45.86
49063;BME280;34876;51.464;-0.150;2022-11-20T04:26:43;100799.15;;;17.05;45.87
49063;BME280;34876;51.464;-0.150;2022-11-20T04:29:13;100795.88;;;17.05;45.94
49063;BME280;34876;51.464;-0.150;2022-11-20T04:31:42;100791.43;;;17.03;45.99
49063;BME280;34876;51.464;-0.150;2022-11-20T04:34:11;100785.20;;;17.04;46.00
49063;BME280;34876;51.464;-0.150;2022-11-20T04:36:40;100779.26;;;17.05;45.99
49063;BME280;34876;51.464;-0.150;2022-11-20T04:39:13;100774.99;;;17.04;46.07
49063;BME280;34876;51.464;-0.150;2022-11-20T04:41:42;100778.27;;;17.04;46.11
49063;BME280;34876;51.464;-0.150;2022-11-20T04:44:12;100782.27;;;17.03;46.06
49063;BME280;34876;51.464;-0.150;2022-11-20T04:46:42;100772.92;;;17.04;46.17
49063;BME280;34876;51.464;-0.150;2022-11-20T04:49:13;100773.01;;;17.03;46.15
49063;BME280;34876;51.464;-0.150;2022-11-20T04:51:43;100766.84;;;16.97;46.29
49063;BME280;34876;51.464;-0.150;2022-11-20T04:54:12;100766.19;;;17.01;46.21
49063;BME280;34876;51.464;-0.150;2022-11-20T04:56:41;100763.11;;;17.02;46.27
49063;BME280;34876;51.464;-0.150;2022-11-20T04:59:10;100758.81;;;17.02;46.26
49063;BME280;34876;51.464;-0.150;2022-11-20T05:01:39;100748.94;;;17.03;46.26
49063;BME280;34876;51.464;-0.150;2022-11-20T05:04:09;100742.14;;;17.01;46.27
49063;BME280;34876;51.464;-0.150;2022-11-20T05:06:38;100735.17;;;16.97;46.49
49063;BME280;34876;51.464;-0.150;2022-11-20T05:09:07;100730.10;;;16.99;46.44
49063;BME280;34876;51.464;-0.150;2022-11-20T05:11:36;100727.21;;;16.99;46.36
49063;BME280;34876;51.464;-0.150;2022-11-20T05:14:05;100721.20;;;16.98;46.46
49063;BME280;34876;51.464;-0.150;2022-11-20T05:16:35;100719.08;;;16.97;46.58
49063;BME280;34876;51.464;-0.150;2022-11-20T05:19:04;100714.13;;;16.97;46.48
49063;BME280;34876;51.464;-0.150;2022-11-20T05:21:33;100709.97;;;16.98;46.54
49063;BME280;34876;51.464;-0.150;2022-11-20T05:24:03;100705.51;;;16.98;46.53
49063;BME280;34876;51.464;-0.150;2022-11-20T05:26:32;100701.63;;;16.98;46.52
49063;BME280;34876;51.464;-0.150;2022-11-20T05:29:02;100699.69;;;16.97;46.62
49063;BME280;34876;51.464;-0.150;2022-11-20T05:31:31;100696.02;;;16.99;46.58
49063;BME280;34876;51.464;-0.150;2022-11-20T05:34:00;100686.42;;;16.97;46.67
49063;BME280;34876;51.464;-0.150;2022-11-20T05:36:30;100682.91;;;16.88;47.74
49063;BME280;34876;51.464;-0.150;2022-11-20T05:38:59;100683.61;;;16.95;46.78
49063;BME280;34876;51.464;-0.150;2022-11-20T05:41:28;100680.88;;;16.98;46.72
49063;BME280;34876;51.464;-0.150;2022-11-20T05:43:57;100681.97;;;16.96;46.75
49063;BME280;34876;51.464;-0.150;2022-11-20T05:46:27;100681.37;;;16.97;46.78
49063;BME280;34876;51.464;-0.150;2022-11-20T05:48:57;100680.39;;;16.98;46.82
49063;BME280;34876;51.464;-0.150;2022-11-20T05:51:27;100674.13;;;16.98;46.80
49063;BME280;34876;51.464;-0.150;2022-11-20T05:53:56;100668.64;;;16.98;46.88
49063;BME280;34876;51.464;-0.150;2022-11-20T05:56:26;100668.61;;;16.98;46.82
49063;BME280;34876;51.464;-0.150;2022-11-20T05:58:56;100660.18;;;16.98;46.78
49063;BME280;34876;51.464;-0.150;2022-11-20T06:01:25;100655.95;;;16.99;46.86
49063;BME280;34876;51.464;-0.150;2022-11-20T06:03:55;100651.02;;;16.99;46.84
49063;BME280;34876;51.464;-0.150;2022-11-20T06:06:24;100651.36;;;17.00;46.88
49063;BME280;34876;51.464;-0.150;2022-11-20T06:08:55;100645.69;;;16.99;46.93
49063;BME280;34876;51.464;-0.150;2022-11-20T06:11:24;100638.87;;;16.99;46.93
49063;BME280;34876;51.464;-0.150;2022-11-20T06:13:53;100640.23;;;16.99;46.94
49063;BME280;34876;51.464;-0.150;2022-11-20T06:16:22;100641.86;;;16.99;46.99
49063;BME280;34876;51.464;-0.150;2022-11-20T06:18:52;100637.04;;;17.00;46.94
49063;BME280;34876;51.464;-0.150;2022-11-20T06:21:22;100627.60;;;17.00;46.97
49063;BME280;34876;51.464;-0.150;2022-11-20T06:23:52;100626.87;;;17.00;47.04
49063;BME280;34876;51.464;-0.150;2022-11-20T06:26:24;100622.83;;;17.00;47.11
49063;BME280;34876;51.464;-0.150;2022-11-20T06:28:54;100613.23;;;17.00;47.06
49063;BME280;34876;51.464;-0.150;2022-11-20T06:31:25;100608.16;;;17.02;47.05
49063;BME280;34876;51.464;-0.150;2022-11-20T06:33:55;100601.76;;;17.00;47.07
49063;BME280;34876;51.464;-0.150;2022-11-20T06:36:25;100600.14;;;16.99;47.09
49063;BME280;34876;51.464;-0.150;2022-11-20T06:38:54;100596.21;;;17.00;47.15
49063;BME280;34876;51.464;-0.150;2022-11-20T06:41:23;100593.66;;;17.00;47.11
49063;BME280;34876;51.464;-0.150;2022-11-20T06:43:52;100589.14;;;17.01;47.14
49063;BME280;34876;51.464;-0.150;2022-11-20T06:46:21;100585.32;;;16.99;47.25
49063;BME280;34876;51.464;-0.150;2022-11-20T06:48:50;100578.56;;;17.01;47.22
49063;BME280;34876;51.464;-0.150;2022-11-20T06:51:19;100573.74;;;17.01;47.16
49063;BME280;34876;51.464;-0.150;2022-11-20T06:53:48;100566.95;;;16.95;47.42
49063;BME280;34876;51.464;-0.150;2022-11-20T06:56:18;100564.46;;;16.99;47.34
49063;BME280;34876;51.464;-0.150;2022-11-20T06:58:47;100561.59;;;16.99;47.32
49063;BME280;34876;51.464;-0.150;2022-11-20T07:01:16;100559.20;;;16.99;47.38
49063;BME280;34876;51.464;-0.150;2022-11-20T07:03:48;100560.51;;;16.99;47.38
49063;BME280;34876;51.464;-0.150;2022-11-20T07:06:17;100564.42;;;17.01;47.38
49063;BME280;34876;51.464;-0.150;2022-11-20T07:08:46;100568.03;;;17.00;47.39
49063;BME280;34876;51.464;-0.150;2022-11-20T07:11:15;100573.36;;;17.02;47.38
49063;BME280;34876;51.464;-0.150;2022-11-20T07:13:44;100586.50;;;17.02;47.40
49063;BME280;34876;51.464;-0.150;2022-11-20T07:16:14;100605.92;;;16.81;48.14
49063;BME280;34876;51.464;-0.150;2022-11-20T07:18:43;100605.57;;;16.69;48.38
49063;BME280;34876;51.464;-0.150;2022-11-20T07:21:12;100601.79;;;16.96;47.70
49063;BME280;34876;51.464;-0.150;2022-11-20T07:23:41;100600.30;;;17.00;47.60
49063;BME280;34876;51.464;-0.150;2022-11-20T07:26:11;100578.71;;;17.01;47.69
49063;BME280;34876;51.464;-0.150;2022-11-20T07:28:40;100574.39;;;17.00;47.75
49063;BME280;34876;51.464;-0.150;2022-11-20T07:31:09;100573.78;;;17.02;47.74
49063;BME280;34876;51.464;-0.150;2022-11-20T07:33:38;100568.98;;;17.01;47.68
49063;BME280;34876;51.464;-0.150;2022-11-20T07:36:09;100574.27;;;17.01;47.68
49063;BME280;34876;51.464;-0.150;2022-11-20T07:38:38;100575.50;;;17.03;47.69
49063;BME280;34876;51.464;-0.150;2022-11-20T07:41:07;100586.73;;;17.06;47.69
49063;BME280;34876;51.464;-0.150;2022-11-20T07:43:36;100592.42;;;17.05;47.66
49063;BME280;34876;51.464;-0.150;2022-11-20T07:46:05;100595.78;;;17.07;47.63
49063;BME280;34876;51.464;-0.150;2022-11-20T07:48:34;100594.49;;;17.06;47.77
49063;BME280;34876;51.464;-0.150;2022-11-20T07:51:04;100591.57;;;17.05;47.74
49063;BME280;34876;51.464;-0.150;2022-11-20T07:53:33;100588.40;;;17.06;47.80
49063;BME280;34876;51.464;-0.150;2022-11-20T07:56:03;100583.38;;;17.09;47.69
49063;BME280;34876;51.464;-0.150;2022-11-20T07:58:32;100578.91;;;17.09;47.72
49063;BME280;34876;51.464;-0.150;2022-11-20T08:01:05;100575.38;;;17.07;47.78
49063;BME280;34876;51.464;-0.150;2022-11-20T08:03:35;100583.79;;;17.10;47.80
49063;BME280;34876;51.464;-0.150;2022-11-20T08:06:04;100580.32;;;17.08;47.81
49063;BME280;34876;51.464;-0.150;2022-11-20T08:08:34;100588.25;;;17.13;47.70
49063;BME280;34876;51.464;-0.150;2022-11-20T08:11:03;100594.89;;;17.11;47.80
49063;BME280;34876;51.464;-0.150;2022-11-20T08:13:33;100595.34;;;17.11;47.79
49063;BME280;34876;51.464;-0.150;2022-11-20T08:16:03;100603.21;;;17.12;47.85
49063;BME280;34876;51.464;-0.150;2022-11-20T08:18:33;100612.44;;;17.14;47.78
49063;BME280;34876;51.464;-0.150;2022-11-20T08:21:02;100614.98;;;17.12;47.85
49063;BME280;34876;51.464;-0.150;2022-11-20T08:23:32;100624.03;;;17.11;47.94
49063;BME280;34876;51.464;-0.150;2022-11-20T08:26:01;100632.70;;;17.14;47.85
49063;BME280;34876;51.464;-0.150;2022-11-20T08:28:30;100635.20;;;17.13;47.95
49063;BME280;34876;51.464;-0.150;2022-11-20T08:31:00;100643.69;;;17.14;47.92
49063;BME280;34876;51.464;-0.150;2022-11-20T08:33:30;100649.50;;;17.14;47.92
49063;BME280;34876;51.464;-0.150;2022-11-20T08:36:00;100654.83;;;17.16;47.85
49063;BME280;34876;51.464;-0.150;2022-11-20T08:38:29;100656.66;;;17.13;47.99
49063;BME280;34876;51.464;-0.150;2022-11-20T08:40:58;100651.60;;;17.14;47.99
49063;BME280;34876;51.464;-0.150;2022-11-20T08:43:27;100649.28;;;17.15;47.99
49063;BME280;34876;51.464;-0.150;2022-11-20T08:45:56;100647.81;;;17.17;47.88
49063;BME280;34876;51.464;-0.150;2022-11-20T08:48:25;100650.72;;;17.16;47.97
49063;BME280;34876;51.464;-0.150;2022-11-20T08:50:57;100654.13;;;17.18;47.97
49063;BME280;34876;51.464;-0.150;2022-11-20T08:53:26;100662.79;;;17.20;47.89
49063;BME280;34876;51.464;-0.150;2022-11-20T08:55:57;100666.71;;;17.25;47.82
49063;BME280;34876;51.464;-0.150;2022-11-20T08:58:26;100667.78;;;17.27;47.75
49063;BME280;34876;51.464;-0.150;2022-11-20T09:00:56;100668.99;;;17.26;47.81
49063;BME280;34876;51.464;-0.150;2022-11-20T09:03:26;100670.48;;;17.26;47.76
49063;BME280;34876;51.464;-0.150;2022-11-20T09:05:57;100674.90;;;17.24;47.85
49063;BME280;34876;51.464;-0.150;2022-11-20T09:08:27;100676.33;;;17.28;47.71
49063;BME280;34876;51.464;-0.150;2022-11-20T09:11:01;100676.11;;;17.33;47.72
49063;BME280;34876;51.464;-0.150;2022-11-20T09:13:34;100675.03;;;17.31;47.72
49063;BME280;34876;51.464;-0.150;2022-11-20T09:16:05;100669.16;;;17.29;47.80
49063;BME280;34876;51.464;-0.150;2022-11-20T09:18:40;100669.74;;;17.26;47.83
49063;BME280;34876;51.464;-0.150;2022-11-20T09:21:11;100672.50;;;17.31;47.75
49063;BME280;34876;51.464;-0.150;2022-11-20T09:23:40;100668.68;;;17.33;47.88
49063;BME280;34876;51.464;-0.150;2022-11-20T09:26:13;100661.65;;;17.33;47.73
49063;BME280;34876;51.464;-0.150;2022-11-20T09:28:43;100662.70;;;17.28;47.85
49063;BME280;34876;51.464;-0.150;2022-11-20T09:31:19;100669.08;;;17.29;47.78
49063;BME280;34876;51.464;-0.150;2022-11-20T09:33:50;100675.38;;;17.28;47.91
49063;BME280;34876;51.464;-0.150;2022-11-20T09:36:19;100685.56;;;17.29;47.93
49063;BME280;34876;51.464;-0.150;2022-11-20T09:38:48;100689.29;;;17.27;47.93
49063;BME280;34876;51.464;-0.150;2022-11-20T09:41:30;100694.05;;;17.36;47.66
49063;BME280;34876;51.464;-0.150;2022-11-20T09:44:09;100696.09;;;17.27;48.00
49063;BME280;34876;51.464;-0.150;2022-11-20T09:46:53;100700.21;;;17.10;48.35
49063;BME280;34876;51.464;-0.150;2022-11-20T09:49:28;100692.09;;;17.30;47.94
49063;BME280;34876;51.464;-0.150;2022-11-20T09:52:11;100691.00;;;17.28;48.07
49063;BME280;34876;51.464;-0.150;2022-11-20T09:54:44;100689.30;;;17.30;47.99
49063;BME280;34876;51.464;-0.150;2022-11-20T09:57:17;100694.64;;;17.21;48.13
49063;BME280;34876;51.464;-0.150;2022-11-20T09:59:51;100690.67;;;17.28;48.06
49063;BME280;34876;51.464;-0.150;2022-11-20T10:02:28;100678.04;;;17.31;48.03
49063;BME280;34876;51.464;-0.150;2022-11-20T10:05:04;100664.68;;;17.32;47.88
49063;BME280;34876;51.464;-0.150;2022-11-20T10:07:39;100669.96;;;17.33;47.98
49063;BME280;34876;51.464;-0.150;2022-11-20T10:10:15;100677.03;;;17.43;47.59
49063;BME280;34876;51.464;-0.150;2022-11-20T10:13:00;100673.29;;;17.41;47.68
49063;BME280;34876;51.464;-0.150;2022-11-20T10:15:36;100677.49;;;17.46;47.60
49063;BME280;34876;51.464;-0.150;2022-11-20T10:18:15;100674.60;;;17.52;47.41
49063;BME280;34876;51.464;-0.150;2022-11-20T10:20:55;100676.70;;;17.44;47.57
49063;BME280;34876;51.464;-0.150;2022-11-20T10:23:43;100672.93;;;17.44;47.63
49063;BME280;34876;51.464;-0.150;2022-11-20T10:26:20;100669.64;;;17.10;48.14
49063;BME280;34876;51.464;-0.150;2022-11-20T10:29:02;100664.90;;;17.45;47.66
49063;BME280;34876;51.464;-0.150;2022-11-20T10:31:38;100667.41;;;17.37;47.43
49063;BME280;34876;51.464;-0.150;2022-11-20T10:34:18;100664.76;;;17.48;47.53
49063;BME280;34876;51.464;-0.150;2022-11-20T10:36:54;100662.63;;;17.54;47.34
49063;BME280;34876;51.464;-0.150;2022-11-20T10:39:30;100658.70;;;17.58;47.31
49063;BME280;34876;51.464;-0.150;2022-11-20T10:42:01;100665.72;;;17.56;47.38
49063;BME280;34876;51.464;-0.150;2022-11-20T10:44:31;100674.00;;;17.54;47.52
49063;BME280;34876;51.464;-0.150;2022-11-20T10:46:59;100674.54;;;17.52;47.56
49063;BME280;34876;51.464;-0.150;2022-11-20T10:49:30;100669.83;;;17.54;47.49
49063;BME280;34876;51.464;-0.150;2022-11-20T10:52:07;100670.46;;;17.52;47.64
49063;BME280;34876;51.464;-0.150;2022-11-20T10:54:45;100667.76;;;17.51;47.82
49063;BME280;34876;51.464;-0.150;2022-11-20T10:57:24;100667.42;;;17.49;47.78
49063;BME280;34876;51.464;-0.150;2022-11-20T11:00:02;100665.71;;;17.46;48.11
49063;BME280;34876;51.464;-0.150;2022-11-20T11:02:35;100665.59;;;17.22;48.36
49063;BME280;34876;51.464;-0.150;2022-11-20T11:05:14;100662.96;;;17.47;47.81
49063;BME280;34876;51.464;-0.150;2022-11-20T11:07:50;100668.99;;;17.53;47.62
49063;BME280;34876;51.464;-0.150;2022-11-20T11:10:25;100674.85;;;17.55;47.56
49063;BME280;34876;51.464;-0.150;2022-11-20T11:12:56;100676.18;;;17.45;47.79
49063;BME280;34876;51.464;-0.150;2022-11-20T11:15:28;100671.05;;;17.45;47.89
49063;BME280;34876;51.464;-0.150;2022-11-20T11:17:57;100671.68;;;17.46;47.88
49063;BME280;34876;51.464;-0.150;2022-11-20T11:20:26;100671.80;;;17.45;47.96
49063;BME280;34876;51.464;-0.150;2022-11-20T11:22:57;100671.21;;;17.48;47.96
49063;BME280;34876;51.464;-0.150;2022-11-20T11:25:29;100670.70;;;17.47;47.99
49063;BME280;34876;51.464;-0.150;2022-11-20T11:28:01;100671.19;;;17.47;47.98
49063;BME280;34876;51.464;-0.150;2022-11-20T11:30:42;100666.63;;;17.45;48.05
49063;BME280;34876;51.464;-0.150;2022-11-20T11:33:18;100664.70;;;17.45;47.96
49063;BME280;34876;51.464;-0.150;2022-11-20T11:35:50;100664.28;;;17.46;47.99
49063;BME280;34876;51.464;-0.150;2022-11-20T11:38:23;100664.44;;;17.30;48.69
49063;BME280;34876;51.464;-0.150;2022-11-20T11:40:56;100661.64;;;17.32;48.72
49063;BME280;34876;51.464;-0.150;2022-11-20T11:43:30;100657.85;;;17.39;48.53
49063;BME280;34876;51.464;-0.150;2022-11-20T11:46:00;100655.52;;;17.35;48.48
49063;BME280;34876;51.464;-0.150;2022-11-20T11:48:29;100648.76;;;17.31;48.49
49063;BME280;34876;51.464;-0.150;2022-11-20T11:50:59;100645.17;;;17.39;48.26
49063;BME280;34876;51.464;-0.150;2022-11-20T11:53:29;100636.64;;;17.40;48.27
49063;BME280;34876;51.464;-0.150;2022-11-20T11:56:03;100634.04;;;17.40;48.45
49063;BME280;34876;51.464;-0.150;2022-11-20T11:58:43;100640.91;;;17.34;47.68
49063;BME280;34876;51.464;-0.150;2022-11-20T12:01:24;100640.88;;;17.25;48.92
49063;BME280;34876;51.464;-0.150;2022-11-20T12:04:03;100632.74;;;17.10;50.04
49063;BME280;34876;51.464;-0.150;2022-11-20T12:06:34;100634.75;;;17.24;49.91
49063;BME280;34876;51.464;-0.150;2022-11-20T12:09:09;100634.10;;;17.06;47.11
49063;BME280;34876;51.464;-0.150;2022-11-20T12:11:45;100634.84;;;16.65;50.91
49063;BME280;34876;51.464;-0.150;2022-11-20T12:14:18;100636.29;;;17.00;50.22
49063;BME280;34876;51.464;-0.150;2022-11-20T12:16:48;100633.02;;;17.06;47.11
49063;BME280;34876;51.464;-0.150;2022-11-20T12:19:17;100629.90;;;17.32;49.42
49063;BME280;34876;51.464;-0.150;2022-11-20T12:21:55;100633.08;;;17.36;49.24
49063;BME280;34876;51.464;-0.150;2022-11-20T12:24:36;100636.01;;;17.37;49.17
49063;BME280;34876;51.464;-0.150;2022-11-20T12:27:22;100635.72;;;17.38;49.14
49063;BME280;34876;51.464;-0.150;2022-11-20T12:30:01;100635.19;;;17.34;49.46
49063;BME280;34876;51.464;-0.150;2022-11-20T12:32:49;100635.48;;;17.36;49.38
49063;BME280;34876;51.464;-0.150;2022-11-20T12:35:57;100640.40;;;17.31;50.95
49063;BME280;34876;51.464;-0.150;2022-11-20T12:39:07;100640.15;;;17.26;50.81
49063;BME280;34876;51.464;-0.150;2022-11-20T12:41:58;100645.51;;;17.05;49.53
49063;BME280;34876;51.464;-0.150;2022-11-20T12:45:02;100652.71;;;17.38;49.36
49063;BME280;34876;51.464;-0.150;2022-11-20T12:47:45;100655.43;;;17.41;49.14
49063;BME280;34876;51.464;-0.150;2022-11-20T12:50:27;100655.17;;;17.37;49.31
49063;BME280;34876;51.464;-0.150;2022-11-20T12:53:03;100649.43;;;17.41;49.26
49063;BME280;34876;51.464;-0.150;2022-11-20T12:55:43;100652.66;;;17.40;49.57
49063;BME280;34876;51.464;-0.150;2022-11-20T12:58:20;100659.89;;;17.19;49.76
49063;BME280;34876;51.464;-0.150;2022-11-20T13:01:03;100661.60;;;17.34;49.73
49063;BME280;34876;51.464;-0.150;2022-11-20T13:03:41;100660.14;;;17.39;49.77
49063;BME280;34876;51.464;-0.150;2022-11-20T13:06:15;100662.47;;;17.06;50.43